Flight Track Log - Related Links

Times and Time Zones

All times are in EDT time to prevent confusion due to time zone crossing. See the UPS1219 flight status page for this flight to view local times or setup timezone preferences in your user account.

Time Position Orientation Groundspeed Altitude Reporting Facility
EDT Latitude Longitude Course Direction KTS MPH feet Rate Location/Type
Mon 10:58:36 PM 38.9430 -77.5090 250° West 175 201 2,700  Level FlightAware ADS-B
Mon 10:59:01 PM 38.9330 -77.5360 245° Southwest 227 261 3,300 2,509 Climbing FlightAware ADS-B
Mon 10:59:31 PM 38.9260 -77.5800 258° West 253 291 5,000 4,000 Climbing FlightAware ADS-B
Mon 11:00:01 PM 38.9210 -77.6240 262° West 252 290 7,300 4,500 Climbing FlightAware ADS-B
Mon 11:00:31 PM 38.9160 -77.6680 262° West 254 292 9,500 3,257 Climbing FlightAware ADS-B
Mon 11:01:11 PM 38.9080 -77.7340 261° West 306 352 11,100 2,047 Climbing FlightAware ADS-B
Mon 11:01:56 PM 38.8990 -77.8240 263° West 367 422 12,400 2,471 Climbing FlightAware ADS-B
Mon 11:02:36 PM 38.8900 -77.9100 262° West 380 437 14,600 3,279 Climbing FlightAware ADS-B
Mon 11:03:22 PM 38.8780 -78.0140 262° West 388 447 17,100 2,894 Climbing FlightAware ADS-B
Mon 11:04:01 PM 38.8680 -78.1050 262° West 408 470 18,700 2,658 Climbing FlightAware ADS-B
Mon 11:04:41 PM 38.8570 -78.2050 262° West 415 478 20,600 2,682 Climbing FlightAware ADS-B
Mon 11:05:26 PM 38.8540 -78.3170 268° West 425 489 22,500 2,475 Climbing FlightAware ADS-B
Mon 11:06:01 PM 38.8530 -78.4030 269° West 430 495 23,900 2,118 Climbing FlightAware ADS-B
Mon 11:06:51 PM 38.8520 -78.5330 269° West 445 512 25,500 1,933 Climbing FlightAware ADS-B
Mon 11:07:31 PM 38.8500 -78.6390 269° West 454 522 26,800 2,148 Climbing FlightAware ADS-B
Mon 11:08:12 PM 38.8480 -78.7520 269° West 451 519 28,400 2,519 Climbing FlightAware ADS-B
Mon 11:08:52 PM 38.8460 -78.8580 269° West 441 507 30,200 2,471 Climbing FlightAware ADS-B
Mon 11:09:37 PM 38.8320 -78.9700 261° West 435 501 31,900 2,118 Climbing FlightAware ADS-B
Mon 11:10:17 PM 38.8160 -79.0740 259° West 431 496 33,200 1,800 Climbing FlightAware ADS-B
Mon 11:10:57 PM 38.8020 -79.1610 258° West 428 493 34,300 1,482 Climbing FlightAware ADS-B
Mon 11:11:42 PM 38.7820 -79.2850 258° West 432 497 35,300 1,213 Climbing FlightAware ADS-B
Mon 11:12:26 PM 38.7640 -79.3960 258° West 436 502 36,100 472 Climbing FlightAware ADS-B
Mon 11:13:11 PM 38.7450 -79.5070 258° West 436 502 36,000 -75 Descending FlightAware ADS-B
Mon 11:13:46 PM 38.7310 -79.5950 258° West 431 496 36,000  Level FlightAware ADS-B
Mon 11:14:32 PM 38.7120 -79.7120 258° West 429 494 36,000  Level FlightAware ADS-B
Mon 11:15:12 PM 38.6950 -79.8090 257° West 433 498 36,000  Level FlightAware ADS-B
Mon 11:16:32 PM 38.6910 -79.8340 258° West 432 497 36,000  Level FlightAware ADS-B
Mon 11:17:20 PM 38.6410 -80.1320 258° West 432 497 36,000  Level FlightAware ADS-B
Mon 11:18:01 PM 38.6240 -80.2320 258° West 432 497 36,000  Level FlightAware ADS-B
Mon 11:18:45 PM 38.6050 -80.3440 258° West 431 496 36,000  Level FlightAware ADS-B
Mon 11:19:29 PM 38.5860 -80.4510 257° West 431 496 36,000  Level FlightAware ADS-B
Mon 11:20:08 PM 38.5690 -80.5480 257° West 431 496 36,000  Level FlightAware ADS-B
Mon 11:20:54 PM 38.5510 -80.6520 258° West 430 495 36,000  Level FlightAware ADS-B
Mon 11:21:33 PM 38.5320 -80.7610 257° West 431 496 36,000  Level FlightAware ADS-B
Mon 11:22:17 PM 38.5130 -80.8710 258° West 433 498 36,000  Level FlightAware ADS-B
Mon 11:22:57 PM 38.4950 -80.9700 257° West 433 498 36,000  Level FlightAware ADS-B
Mon 11:23:36 PM 38.4780 -81.0650 257° West 434 499 36,000  Level FlightAware ADS-B
Mon 11:24:21 PM 38.4580 -81.1780 257° West 434 499 36,000  Level FlightAware ADS-B
Mon 11:25:05 PM 38.4380 -81.2900 257° West 434 499 36,000  Level FlightAware ADS-B
Mon 11:25:45 PM 38.4190 -81.3900 256° West 433 498 36,000  Level FlightAware ADS-B
Mon 11:26:29 PM 38.4000 -81.4990 257° West 435 501 36,000  Level FlightAware ADS-B
Mon 11:27:09 PM 38.3810 -81.5990 256° West 435 501 36,000  Level FlightAware ADS-B
Mon 11:27:49 PM 38.3630 -81.6990 257° West 435 501 36,000  Level FlightAware ADS-B
Mon 11:28:31 PM 38.3410 -81.8000 255° West 436 502 36,000  Level FlightAware ADS-B
Mon 11:29:15 PM 38.3110 -81.9090 251° West 436 502 36,000  Level FlightAware ADS-B
Mon 11:29:55 PM 38.2840 -82.0060 251° West 436 502 36,000  Level FlightAware ADS-B
Mon 11:30:45 PM 38.2492 -82.1268 250° West 438 504 36,000  Level FlightAware ADS-B
Mon 11:31:19 PM 38.2260 -82.2070 250° West 437 503 36,000  Level FlightAware ADS-B
Mon 11:32:01 PM 38.1980 -82.3080 251° West 436 502 36,000  Level FlightAware ADS-B
Mon 11:32:12 PM 38.1900 -82.3371 251° West 437 503 36,000  Level FlightAware ADS-B
Mon 11:32:46 PM 38.1664 -82.4190 250° West 437 503 36,000  Level FlightAware ADS-B
Mon 11:33:18 PM 38.1440 -82.4962 250° West 437 503 36,000  Level FlightAware ADS-B
Mon 11:33:48 PM 38.1231 -82.5688 250° West 439 505 36,000  Level FlightAware ADS-B
Mon 11:34:20 PM 38.1011 -82.6462 250° West 439 505 36,000 -469 Level FlightAware ADS-B
Mon 11:34:52 PM 38.0790 -82.7235 250° West 438 504 35,500 -909 Descending FlightAware ADS-B
Mon 11:35:26 PM 38.0555 -82.8051 250° West 435 501 35,000 -1,000 Descending FlightAware ADS-B
Mon 11:36:16 PM 38.0211 -82.9246 250° West 434 499 34,100 -742 Descending FlightAware ADS-B
Mon 11:37:03 PM 37.9910 -83.0260 249° West 433 498 33,800 -188 Descending FlightAware ADS-B
Mon 11:37:52 PM 37.9610 -83.1250 249° West 433 498 33,800 -1,391 Level FlightAware ADS-B
Mon 11:38:12 PM 37.9394 -83.2027 251° West 434 499 32,200 -1,200 Descending FlightAware ADS-B
Mon 11:39:22 PM 37.8897 -83.3723 250° West 440 506 32,000 -88 Descending FlightAware ADS-B
Mon 11:40:28 PM 37.8413 -83.5354 249° West 440 506 32,000 -1,033 Level FlightAware ADS-B
Mon 11:43:55 PM 37.6886 -84.0414 249° West 459 528 27,300 -1,443 Descending FlightAware ADS-B
Mon 11:44:25 PM 37.6656 -84.1195 250° West 465 535 26,300 -1,935 Descending FlightAware ADS-B
Mon 11:44:57 PM 37.6414 -84.1980 249° West 463 533 25,300 -1,969 Descending FlightAware ADS-B
Mon 11:45:29 PM 37.6174 -84.2783 249° West 457 526 24,200 -2,032 Descending FlightAware ADS-B
Mon 11:45:59 PM 37.5947 -84.3522 249° West 450 518 23,200 -2,381 Descending FlightAware ADS-B
Mon 11:46:32 PM 37.5700 -84.4324 249° West 448 516 21,700 -2,687 Descending FlightAware ADS-B
Mon 11:47:06 PM 37.5452 -84.5135 249° West 435 501 20,200 -2,677 Descending FlightAware ADS-B
Mon 11:47:37 PM 37.5228 -84.5853 249° West 425 489 18,800 -2,735 Descending FlightAware ADS-B
Mon 11:48:14 PM 37.4983 -84.6684 250° West 414 476 17,100 -2,714 Descending FlightAware ADS-B
Mon 11:48:19 PM 37.4964 -84.6799 258° West 405 466 16,900 -1,935 Descending FlightAware ADS-B
Mon 11:48:45 PM 37.4964 -84.7247 258° West 410 472 16,100 -1,458 Descending Indianapolis Center
Mon 11:54:13 PM 37.8080 -85.2450 258° West 281 323 8,300 -1,433 Descending FlightAware ADS-B
Mon 11:54:41 PM 37.8240 -85.2880 295° West 276 318 7,600 -1,448 Descending FlightAware ADS-B
Mon 11:55:11 PM 37.8410 -85.3290 298° West 272 313 6,900 -1,457 Descending FlightAware ADS-B
Mon 11:55:51 PM 37.8650 -85.3860 298° West 274 315 5,900 -1,500 Descending FlightAware ADS-B
Mon 11:56:07 PM 37.8740 -85.4110 295° West 275 316 5,500 -1,500 Descending FlightAware ADS-B
Mon 11:56:31 PM 37.8880 -85.4450 298° West 273 314 4,900 -1,556 Descending FlightAware ADS-B
Mon 11:57:01 PM 37.9050 -85.4880 297° West 269 310 4,100 -1,571 Descending FlightAware ADS-B
Mon 11:57:13 PM 37.9120 -85.5050 298° West 267 307 3,800 -1,421 Descending FlightAware ADS-B
Mon 11:57:39 PM 37.9260 -85.5410 296° West 264 304 3,200 -679 Descending FlightAware ADS-B
Mon 11:58:06 PM 37.9380 -85.5730 295° West 264 304 3,200 -205 Level FlightAware ADS-B
Mon 11:59:07 PM 37.9760 -85.6400 306° West 193 222 2,900 -198 Descending FlightAware ADS-B
Mon 11:59:37 PM 37.9950 -85.6630 316° Northwest 188 216 2,900  Level FlightAware ADS-B
Mon 11:59:49 PM 38.0050 -85.6690 335° Northwest 187 215 2,900  Level FlightAware ADS-B
Tue 12:00:01 AM 38.0150 -85.6730 343° North 186 214 2,900  Level FlightAware ADS-B
Tue 12:00:29 AM 38.0370 -85.6800 346° North 185 213 2,900 -462 Level FlightAware ADS-B
Tue 12:00:53 AM 38.0580 -85.6870 345° North 181 208 2,500 -857 Descending FlightAware ADS-B
Tue 12:01:11 AM 38.0710 -85.6910 346° North 168 193 2,300 -840 Descending FlightAware ADS-B
Tue 12:01:43 AM 38.0930 -85.6990 344° North 137 158 1,800 -750 Descending FlightAware ADS-B
Tue 12:02:07 AM 38.1070 -85.7040 344° North 120 138 1,600 -600 Descending FlightAware ADS-B
Tue 12:02:23 AM 38.1140 -85.7060 347° North 119 137 1,400 -682 Descending FlightAware ADS-B
Tue 12:02:51 AM 38.1310 -85.7120 344° North 118 136 1,100 -643 Descending FlightAware ADS-B
Tue 12:03:19 AM 38.1460 -85.7170 345° North 119 137 800 -632 Descending FlightAware ADS-B
Tue 12:03:48 AM 38.1610 -85.7220 345° North 126 145 500 -621 Descending FlightAware ADS-B
Tue 12:04:12 AM 38.1740 -85.7270 343° North 100 115 -1,250 Descending FlightAware ADS-B
Tue 12:04:28 AM 38.1790 -85.7280 351° North 35 40  Level FlightAware ADS-B
Tue 12:04:40 AM 38.1800 -85.7290 322° Northwest 24 28  Level FlightAware ADS-B
Tue 12:11:00 AM 38.1667 -85.7333 208° Southwest  Level FlightAware Approximate

Login

Don't have an account? Register now (free) for customized features, flight alerts, and more!